Time;durP1;ratioP1;P1;durP2;ratioP2;P2;SDS_P1;SDS_P2;PMS_P1;PMS_P2;Temp;Humidity;BMP_temperature;BMP_pressure;BME280_temperature;BME280_humidity;BME280_pressure;Samples;Min_cycle;Max_cycle;Signal;HPM_P1;HPM_P2
2023/01/26 00:01:22;;;;;;;67.97;20.43;;;;;-0.50;101990.00;;;;10111779;29;20208;-79
2023/01/26 00:06:24;;;;;;;65.53;20.20;;;;;-0.50;101982.00;;;;10080223;29;20238;-79
2023/01/26 00:11:29;;;;;;;58.30;17.03;;;;;-0.60;101974.00;;;;10094815;29;20493;-78
2023/01/26 00:16:31;;;;;;;59.77;16.77;;;;;-0.60;101961.00;;;;10069019;29;20196;-79
2023/01/26 00:21:33;;;;;;;63.00;20.13;;;;;-0.60;101962.00;;;;10103027;29;20219;-78
2023/01/26 00:26:35;;;;;;;56.20;18.90;;;;;-0.60;101945.00;;;;10090702;29;20223;-79
2023/01/26 00:31:37;;;;;;;63.40;18.67;;;;;-0.60;101939.00;;;;10134005;29;20208;-78
2023/01/26 00:36:39;;;;;;;62.17;17.03;;;;;-0.60;101930.00;;;;10116574;29;20236;-78
2023/01/26 00:47:01;;;;;;;62.53;18.53;;;;;-0.50;101921.00;;;;10135997;29;20265;-79
2023/01/26 00:52:04;;;;;;;57.27;17.70;;;;;-0.50;101920.00;;;;10087195;29;20670;-79
2023/01/26 00:57:06;;;;;;;54.90;17.43;;;;;-0.50;101904.00;;;;10073802;29;20287;-79
2023/01/26 01:02:09;;;;;;;68.17;19.37;;;;;-0.50;101911.00;;;;10115462;29;20223;-79
2023/01/26 01:07:11;;;;;;;59.53;18.23;;;;;-0.50;101904.00;;;;10129188;29;20235;-78
2023/01/26 01:12:13;;;;;;;57.67;19.13;;;;;-0.40;101903.00;;;;10085628;29;20323;-79
2023/01/26 01:17:15;;;;;;;73.63;23.50;;;;;-0.40;101899.00;;;;10099572;29;20578;-78
2023/01/26 01:22:17;;;;;;;60.77;20.40;;;;;-0.40;101897.00;;;;10099811;29;20593;-78
2023/01/26 01:27:19;;;;;;;63.27;19.67;;;;;-0.40;101891.00;;;;10085433;29;20590;-78
2023/01/26 01:32:21;;;;;;;81.20;26.13;;;;;-0.40;101893.00;;;;10101048;29;20211;-78
2023/01/26 01:37:23;;;;;;;61.90;21.47;;;;;-0.40;101887.00;;;;10104323;29;20633;-79
2023/01/26 01:42:25;;;;;;;73.63;23.40;;;;;-0.40;101897.00;;;;10081500;29;20216;-79
2023/01/26 01:47:27;;;;;;;66.67;22.20;;;;;-0.40;101895.00;;;;10068302;29;20881;-78
2023/01/26 01:52:30;;;;;;;81.43;23.83;;;;;-0.40;101886.00;;;;10082301;29;20678;-78
2023/01/26 01:57:45;;;;;;;72.73;23.10;;;;;-0.30;101881.00;;;;10129322;29;20228;-79
2023/01/26 02:03:10;;;;;;;64.03;21.67;;;;;-0.30;101872.00;;;;10098689;29;20195;-79
2023/01/26 02:08:15;;;;;;;78.17;22.33;;;;;-0.30;101861.00;;;;10104579;29;20231;-79
2023/01/26 02:13:19;;;;;;;79.50;25.20;;;;;-0.30;101855.00;;;;10076921;29;20236;-78
2023/01/26 02:18:21;;;;;;;77.20;21.57;;;;;-0.30;101854.00;;;;10114124;29;20204;-79
2023/01/26 02:23:44;;;;;;;66.03;22.33;;;;;-0.30;101842.00;;;;10082845;29;20207;-79
2023/01/26 02:28:47;;;;;;;78.87;22.70;;;;;-0.30;101839.00;;;;10064476;29;20231;-79
2023/01/26 02:33:49;;;;;;;68.53;22.37;;;;;-0.30;101860.00;;;;10097191;29;20220;-78
2023/01/26 02:39:00;;;;;;;65.40;20.30;;;;;-0.30;101850.00;;;;10079950;29;20203;-79
2023/01/26 02:44:05;;;;;;;77.13;24.07;;;;;-0.30;101853.00;;;;10096628;29;20207;-79
2023/01/26 02:59:51;;;;;;;60.57;20.17;;;;;-0.20;101853.00;;;;10103008;29;20207;-79
2023/01/26 03:04:53;;;;;;;61.30;21.07;;;;;-0.20;101869.00;;;;10101836;29;20219;-78
2023/01/26 03:09:58;;;;;;;69.33;21.83;;;;;-0.10;101865.00;;;;10076656;29;20204;-79
2023/01/26 03:31:06;;;;;;;66.73;20.50;;;;;-0.10;101852.00;;;;10083823;29;20194;-79
2023/01/26 03:36:08;;;;;;;76.17;20.43;;;;;-0.10;101851.00;;;;10110044;29;20209;-79
2023/01/26 03:57:12;;;;;;;63.60;19.73;;;;;0.00;101844.00;;;;10116199;29;20195;-78
2023/01/26 04:23:44;;;;;;;62.60;18.57;;;;;0.10;101832.00;;;;10112329;29;20302;-78
2023/01/26 04:28:46;;;;;;;61.60;18.63;;;;;0.10;101830.00;;;;10115460;29;20226;-78
2023/01/26 04:33:48;;;;;;;60.43;18.47;;;;;0.10;101819.00;;;;10138197;29;20199;-78
2023/01/26 04:38:50;;;;;;;57.77;19.03;;;;;0.10;101806.00;;;;10099590;29;20933;-78
2023/01/26 04:43:54;;;;;;;59.23;19.53;;;;;0.20;101820.00;;;;10132551;29;20654;-78
2023/01/26 04:48:57;;;;;;;51.30;18.03;;;;;0.20;101825.00;;;;10097146;29;20223;-77
2023/01/26 04:54:00;;;;;;;58.17;18.47;;;;;0.20;101826.00;;;;10082441;29;20232;-78
2023/01/26 04:59:04;;;;;;;50.17;16.67;;;;;0.20;101814.00;;;;10098372;29;20755;-78
2023/01/26 05:04:10;;;;;;;50.73;17.20;;;;;0.30;101806.00;;;;10112238;29;20610;-78
2023/01/26 05:09:14;;;;;;;62.93;17.37;;;;;0.30;101811.00;;;;10129366;29;20762;-78
2023/01/26 05:14:19;;;;;;;57.40;17.43;;;;;0.30;101811.00;;;;10129522;29;20203;-78
2023/01/26 05:19:42;;;;;;;58.33;17.20;;;;;0.30;101808.00;;;;10068470;29;20286;-77
2023/01/26 05:25:06;;;;;;;57.60;17.83;;;;;0.30;101809.00;;;;10111923;29;20222;-78
2023/01/26 05:30:15;;;;;;;56.10;17.93;;;;;0.30;101817.00;;;;10095020;29;20253;-77
2023/01/26 05:35:18;;;;;;;51.90;18.47;;;;;0.30;101819.00;;;;10078527;29;20188;-77
2023/01/26 05:40:20;;;;;;;57.03;17.00;;;;;0.30;101824.00;;;;10122900;29;20192;-77
2023/01/26 05:45:25;;;;;;;46.90;16.70;;;;;0.30;101823.00;;;;10116546;29;20302;-77
2023/01/26 05:50:30;;;;;;;50.80;15.23;;;;;0.40;101823.00;;;;10077045;29;20200;-77
2023/01/26 05:55:47;;;;;;;51.60;14.57;;;;;0.30;101823.00;;;;10096480;29;20207;-77
2023/01/26 06:00:53;;;;;;;41.97;14.27;;;;;0.40;101820.00;;;;10095130;29;20527;-77
2023/01/26 06:06:00;;;;;;;39.53;14.07;;;;;0.40;101819.00;;;;10085173;29;20232;-78
2023/01/26 06:11:12;;;;;;;43.60;13.73;;;;;0.40;101836.00;;;;10098182;29;20868;-77
2023/01/26 06:16:30;;;;;;;36.40;12.87;;;;;0.40;101833.00;;;;10117603;29;20282;-77
2023/01/26 06:21:35;;;;;;;37.30;12.97;;;;;0.30;101842.00;;;;10072905;29;20915;-77
2023/01/26 06:26:38;;;;;;;46.03;14.87;;;;;0.30;101842.00;;;;10092711;29;20685;-77
2023/01/26 06:31:40;;;;;;;34.97;12.77;;;;;0.40;101840.00;;;;10114114;29;20206;-78
2023/01/26 06:36:44;;;;;;;42.57;13.93;;;;;0.40;101844.00;;;;10080404;29;20236;-77
2023/01/26 06:41:53;;;;;;;36.70;12.57;;;;;0.40;101848.00;;;;10093701;29;20208;-77
2023/01/26 06:46:56;;;;;;;30.00;11.20;;;;;0.40;101861.00;;;;10118375;29;20254;-77
2023/01/26 06:52:03;;;;;;;37.07;11.87;;;;;0.40;101861.00;;;;10099273;29;20231;-77
2023/01/26 06:57:26;;;;;;;36.07;12.60;;;;;0.50;101863.00;;;;10104988;29;20214;-77
2023/01/26 07:02:39;;;;;;;35.47;11.37;;;;;0.40;101870.00;;;;10108023;29;20197;-77
2023/01/26 07:07:41;;;;;;;27.53;11.20;;;;;0.40;101869.00;;;;10096441;29;20231;-77
2023/01/26 07:12:44;;;;;;;31.57;11.33;;;;;0.40;101861.00;;;;10107055;29;20210;-78
2023/01/26 07:17:46;;;;;;;35.23;12.10;;;;;0.40;101872.00;;;;10092253;29;20264;-78
2023/01/26 07:22:48;;;;;;;33.00;12.10;;;;;0.50;101874.00;;;;10094136;29;20230;-78
2023/01/26 07:27:57;;;;;;;39.10;11.93;;;;;0.50;101870.00;;;;10124808;29;20279;-77
2023/01/26 07:32:59;;;;;;;37.57;12.63;;;;;0.50;101880.00;;;;10124294;29;20204;-77
2023/01/26 07:38:05;;;;;;;36.80;12.50;;;;;0.50;101884.00;;;;10124779;29;20286;-78
2023/01/26 07:43:07;;;;;;;37.60;12.70;;;;;0.50;101884.00;;;;10092959;29;20211;-78
2023/01/26 07:48:23;;;;;;;45.00;13.47;;;;;0.50;101893.00;;;;10085795;29;20238;-78
2023/01/26 07:53:28;;;;;;;40.93;12.93;;;;;0.60;101890.00;;;;10071345;29;20207;-78
2023/01/26 07:58:29;;;;;;;40.37;13.60;;;;;0.60;101902.00;;;;10109399;29;20211;-78
2023/01/26 08:03:31;;;;;;;36.97;12.23;;;;;0.60;101901.00;;;;10108476;29;20199;-78
2023/01/26 08:08:34;;;;;;;33.30;12.20;;;;;0.60;101905.00;;;;10092525;29;20227;-78
2023/01/26 08:13:36;;;;;;;44.80;13.17;;;;;0.70;101909.00;;;;10081663;29;20208;-78
2023/01/26 08:18:43;;;;;;;32.47;12.00;;;;;0.70;101908.00;;;;10078601;29;20203;-78
2023/01/26 08:23:49;;;;;;;37.50;14.10;;;;;0.80;101913.00;;;;10056411;29;20232;-78
2023/01/26 08:28:51;;;;;;;33.53;11.63;;;;;0.80;101921.00;;;;10072935;29;20332;-79
2023/01/26 08:33:54;;;;;;;39.07;11.90;;;;;0.80;101926.00;;;;10102278;29;20203;-78
2023/01/26 08:38:56;;;;;;;29.77;10.20;;;;;0.90;101928.00;;;;10088008;29;20204;-78
2023/01/26 08:43:58;;;;;;;36.80;11.50;;;;;0.90;101934.00;;;;10112410;29;20263;-78
2023/01/26 08:49:00;;;;;;;31.87;11.60;;;;;1.00;101938.00;;;;10101504;29;20219;-78
2023/01/26 08:54:06;;;;;;;32.63;10.80;;;;;1.10;101927.00;;;;10105914;29;20211;-78
2023/01/26 08:59:09;;;;;;;34.07;12.27;;;;;1.20;101938.00;;;;10078699;29;20207;-79
2023/01/26 09:04:10;;;;;;;30.80;10.63;;;;;1.30;101927.00;;;;10109196;29;20262;-78
2023/01/26 09:09:15;;;;;;;32.90;10.23;;;;;1.40;101946.00;;;;10084112;29;20231;-79
2023/01/26 09:14:17;;;;;;;36.70;13.57;;;;;1.50;101942.00;;;;10086800;29;20227;-78
2023/01/26 09:19:19;;;;;;;28.57;10.80;;;;;1.60;101945.00;;;;10112306;29;20292;-78
2023/01/26 09:24:22;;;;;;;28.77;11.73;;;;;1.60;101955.00;;;;10081644;29;20214;-78
2023/01/26 09:29:24;;;;;;;28.80;10.87;;;;;1.70;101947.00;;;;10054444;29;20231;-77
2023/01/26 09:34:27;;;;;;;23.80;9.90;;;;;1.80;101949.00;;;;10098623;29;20237;-78
2023/01/26 09:39:29;;;;;;;22.93;9.27;;;;;1.80;101947.00;;;;10078541;29;20287;-78
2023/01/26 09:44:42;;;;;;;25.57;9.90;;;;;1.90;101950.00;;;;10105179;29;20577;-77
2023/01/26 09:49:53;;;;;;;23.00;9.60;;;;;2.00;101945.00;;;;10100682;29;20809;-78
2023/01/26 09:55:01;;;;;;;22.07;9.93;;;;;2.00;101945.00;;;;10078854;29;20539;-77
2023/01/26 10:00:14;;;;;;;25.17;10.27;;;;;2.00;101944.00;;;;10067143;29;20215;-77
2023/01/26 10:05:24;;;;;;;24.60;9.97;;;;;2.00;101948.00;;;;10079368;29;20758;-77
2023/01/26 10:10:31;;;;;;;28.57;11.83;;;;;2.10;101954.00;;;;10114100;29;20829;-77
2023/01/26 10:15:40;;;;;;;31.23;11.40;;;;;2.10;101955.00;;;;10101405;29;20215;-78
2023/01/26 10:20:46;;;;;;;23.27;11.30;;;;;2.30;101959.00;;;;10095463;29;20207;-78
2023/01/26 10:25:50;;;;;;;23.63;10.43;;;;;2.60;101949.00;;;;10088204;29;20562;-78
2023/01/26 10:30:52;;;;;;;27.43;10.33;;;;;2.60;101947.00;;;;10092646;29;20212;-78
2023/01/26 10:35:55;;;;;;;25.93;10.60;;;;;2.50;101954.00;;;;10103393;29;20200;-78
2023/01/26 10:41:10;;;;;;;32.47;11.20;;;;;2.50;101960.00;;;;10087655;29;20318;-78
2023/01/26 10:46:32;;;;;;;36.43;12.30;;;;;2.60;101969.00;;;;10093791;29;20222;-78
2023/01/26 10:51:39;;;;;;;31.57;11.40;;;;;2.60;101968.00;;;;10068530;29;20638;-78
2023/01/26 10:56:49;;;;;;;29.30;10.87;;;;;2.80;101969.00;;;;10102804;29;20270;-78
2023/01/26 11:01:58;;;;;;;34.10;11.60;;;;;2.90;101954.00;;;;10071575;29;20204;-78
2023/01/26 11:07:25;;;;;;;33.60;11.33;;;;;3.00;101965.00;;;;10108790;29;20224;-78
2023/01/26 11:12:28;;;;;;;35.73;11.53;;;;;3.10;101959.00;;;;10091153;29;20629;-78
2023/01/26 11:17:37;;;;;;;24.10;10.57;;;;;3.30;101957.00;;;;10119654;29;20678;-78
2023/01/26 11:23:03;;;;;;;39.67;12.27;;;;;3.40;101958.00;;;;10103562;29;20203;-78
2023/01/26 11:28:14;;;;;;;34.23;13.27;;;;;3.50;101962.00;;;;10085567;29;20225;-78
2023/01/26 11:33:33;;;;;;;36.57;13.73;;;;;3.60;101960.00;;;;10102860;29;20784;-78
2023/01/26 11:38:41;;;;;;;32.70;11.97;;;;;3.70;101955.00;;;;10081958;29;20212;-78
2023/01/26 11:44:28;;;;;;;36.00;12.73;;;;;3.70;101962.00;;;;10111378;29;20671;-78
2023/01/26 11:49:32;;;;;;;37.90;13.23;;;;;4.00;101954.00;;;;10087998;29;20227;-78
2023/01/26 11:54:40;;;;;;;36.60;14.13;;;;;4.00;101953.00;;;;10069865;29;20208;-78
2023/01/26 11:59:47;;;;;;;32.40;13.63;;;;;4.00;101946.00;;;;10078544;29;20207;-78
2023/01/26 12:04:51;;;;;;;40.37;13.57;;;;;4.10;101945.00;;;;10084911;29;20235;-78
2023/01/26 12:09:53;;;;;;;37.00;13.87;;;;;4.20;101937.00;;;;10099067;29;20283;-79
2023/01/26 12:15:05;;;;;;;43.83;15.10;;;;;4.50;101924.00;;;;10056834;29;20211;-78
2023/01/26 12:20:22;;;;;;;38.87;13.67;;;;;4.70;101922.00;;;;10099082;29;20203;-78
2023/01/26 12:25:34;;;;;;;42.40;14.33;;;;;4.80;101920.00;;;;10099653;29;20203;-78
2023/01/26 12:30:43;;;;;;;36.50;13.67;;;;;5.00;101911.00;;;;10083261;29;20230;-78
2023/01/26 12:36:04;;;;;;;47.07;15.23;;;;;5.10;101922.00;;;;10097009;29;20311;-79
2023/01/26 12:41:36;;;;;;;48.23;14.43;;;;;5.10;101907.00;;;;10131365;29;20203;-79
2023/01/26 12:46:45;;;;;;;43.40;13.80;;;;;5.20;101905.00;;;;10089175;29;20220;-78
2023/01/26 12:51:56;;;;;;;43.07;14.43;;;;;5.60;101900.00;;;;10101547;29;20200;-79
2023/01/26 12:57:00;;;;;;;45.37;16.87;;;;;5.90;101885.00;;;;10115015;29;20215;-79
2023/01/26 13:02:24;;;;;;;56.60;15.20;;;;;6.40;101892.00;;;;10116809;29;20215;-79
2023/01/26 13:07:29;;;;;;;47.70;15.17;;;;;6.60;101893.00;;;;10101016;29;20628;-79
2023/01/26 13:12:52;;;;;;;51.43;14.33;;;;;6.70;101883.00;;;;10092267;29;20204;-79
2023/01/26 13:17:55;;;;;;;51.67;13.97;;;;;6.90;101884.00;;;;10104233;29;20294;-79
2023/01/26 13:22:57;;;;;;;39.97;12.97;;;;;7.10;101881.00;;;;10069401;29;20265;-78
2023/01/26 13:28:11;;;;;;;33.50;12.90;;;;;7.10;101883.00;;;;10056914;29;20228;-79
2023/01/26 13:33:21;;;;;;;29.67;11.50;;;;;7.10;101878.00;;;;10122734;29;20204;-78
2023/01/26 13:38:34;;;;;;;27.23;9.40;;;;;7.10;101888.00;;;;10100903;29;20204;-79
2023/01/26 13:43:43;;;;;;;25.70;6.87;;;;;7.00;101880.00;;;;10097087;29;20208;-79
2023/01/26 13:48:48;;;;;;;23.77;5.47;;;;;6.90;101888.00;;;;10099582;29;20211;-78
2023/01/26 13:54:03;;;;;;;22.60;5.23;;;;;6.90;101894.00;;;;10111301;29;20204;-78
2023/01/26 13:59:14;;;;;;;13.70;3.57;;;;;6.80;101886.00;;;;10116216;29;20226;-78
2023/01/26 14:04:21;;;;;;;15.43;3.80;;;;;6.80;101881.00;;;;10097944;29;20351;-78
2023/01/26 14:09:26;;;;;;;17.83;3.33;;;;;6.90;101893.00;;;;10109367;29;20757;-78
2023/01/26 14:14:35;;;;;;;15.07;3.17;;;;;7.00;101885.00;;;;10107537;29;20643;-78
2023/01/26 14:19:40;;;;;;;7.60;2.47;;;;;7.10;101897.00;;;;10116094;29;20255;-79
2023/01/26 14:24:42;;;;;;;17.00;3.43;;;;;7.10;101896.00;;;;10098756;29;20207;-78
2023/01/26 14:29:46;;;;;;;15.73;2.83;;;;;7.00;101891.00;;;;10111967;29;20219;-79
2023/01/26 14:34:57;;;;;;;14.33;2.60;;;;;7.00;101895.00;;;;10090579;29;20211;-79
2023/01/26 14:40:23;;;;;;;12.60;2.97;;;;;7.00;101892.00;;;;10105516;29;20188;-78
2023/01/26 14:45:30;;;;;;;17.77;3.77;;;;;7.00;101906.00;;;;10087968;29;20220;-79
2023/01/26 14:50:34;;;;;;;14.83;3.17;;;;;6.90;101907.00;;;;10097749;29;20219;-78
2023/01/26 14:55:36;;;;;;;21.47;3.10;;;;;6.80;101908.00;;;;10117535;29;20206;-78
2023/01/26 15:00:38;;;;;;;11.47;2.23;;;;;6.70;101910.00;;;;10088125;29;20306;-78
2023/01/26 15:05:41;;;;;;;17.80;4.30;;;;;6.70;101915.00;;;;10094635;29;20223;-78
2023/01/26 15:16:20;;;;;;;15.47;3.90;;;;;6.60;101913.00;;;;10113974;29;20668;-78
2023/01/26 15:21:31;;;;;;;12.60;3.10;;;;;6.50;101922.00;;;;10082297;29;20224;-78
2023/01/26 15:26:35;;;;;;;12.93;3.20;;;;;6.40;101918.00;;;;10104447;29;20203;-78
2023/01/26 15:31:40;;;;;;;12.03;2.83;;;;;6.40;101916.00;;;;10125531;29;20297;-78
2023/01/26 15:36:45;;;;;;;16.87;2.73;;;;;6.30;101908.00;;;;10110423;29;20207;-78
2023/01/26 15:42:12;;;;;;;18.20;2.60;;;;;6.20;101915.00;;;;10085120;29;20196;-78
2023/01/26 15:47:13;;;;;;;15.00;2.73;;;;;6.20;101921.00;;;;10122044;29;20219;-78
2023/01/26 15:52:23;;;;;;;18.90;2.93;;;;;6.10;101918.00;;;;10065333;29;20278;-78
2023/01/26 15:57:25;;;;;;;16.27;5.43;;;;;6.00;101909.00;;;;10116596;29;20267;-78
2023/01/26 16:02:27;;;;;;;9.53;4.60;;;;;5.90;101922.00;;;;10090109;29;20204;-78
2023/01/26 16:07:30;;;;;;;24.17;20.33;;;;;5.80;101926.00;;;;10114615;29;20311;-78
2023/01/26 16:12:32;;;;;;;12.07;4.50;;;;;5.80;101916.00;;;;10100395;29;20247;-78
2023/01/26 16:17:34;;;;;;;13.83;4.20;;;;;5.80;101922.00;;;;10095104;29;20218;-77
2023/01/26 16:22:36;;;;;;;17.00;5.27;;;;;5.80;101929.00;;;;10091706;29;20211;-78
2023/01/26 16:27:38;;;;;;;9.77;2.57;;;;;5.70;101925.00;;;;10132051;29;20216;-78
2023/01/26 16:32:41;;;;;;;7.23;2.37;;;;;5.70;101928.00;;;;10066823;29;20215;-79
2023/01/26 16:37:43;;;;;;;20.20;3.00;;;;;5.70;101933.00;;;;10133592;29;20226;-78
2023/01/26 16:42:51;;;;;;;12.93;3.10;;;;;5.70;101930.00;;;;10102383;29;20271;-79
2023/01/26 16:47:56;;;;;;;9.40;4.53;;;;;5.60;101943.00;;;;10085344;29;20215;-78
2023/01/26 16:52:58;;;;;;;10.10;4.50;;;;;5.60;101942.00;;;;10099283;29;20203;-78
2023/01/26 16:58:00;;;;;;;12.63;2.87;;;;;5.60;101946.00;;;;10112935;29;20698;-78
2023/01/26 17:03:02;;;;;;;11.47;2.33;;;;;5.60;101945.00;;;;10087434;29;20271;-78
2023/01/26 17:08:04;;;;;;;11.60;2.00;;;;;5.60;101953.00;;;;10102413;29;20768;-79
2023/01/26 17:13:06;;;;;;;11.83;3.23;;;;;5.60;101958.00;;;;10131767;29;20714;-78
2023/01/26 17:18:12;;;;;;;9.50;2.00;;;;;5.60;101956.00;;;;10126805;29;20208;-78
2023/01/26 17:23:14;;;;;;;7.90;2.10;;;;;5.50;101955.00;;;;10086402;29;20399;-78
2023/01/26 17:28:16;;;;;;;10.93;2.53;;;;;5.50;101962.00;;;;10130229;29;20705;-78
2023/01/26 17:33:18;;;;;;;13.30;2.53;;;;;5.50;101957.00;;;;10085316;29;20294;-78
2023/01/26 17:38:19;;;;;;;10.53;2.60;;;;;5.50;101971.00;;;;10077477;29;20208;-78
2023/01/26 17:43:22;;;;;;;10.50;2.60;;;;;5.50;101979.00;;;;10116108;29;20592;-78
2023/01/26 17:48:26;;;;;;;4.80;2.10;;;;;5.50;101968.00;;;;10101336;29;20279;-79
2023/01/26 17:53:28;;;;;;;4.80;2.57;;;;;5.50;101974.00;;;;10099078;29;20651;-79
2023/01/26 17:58:31;;;;;;;8.10;2.07;;;;;5.40;101966.00;;;;10098834;29;20658;-79
2023/01/26 18:03:34;;;;;;;4.30;1.63;;;;;5.40;101965.00;;;;10098705;29;20203;-79
2023/01/26 18:08:37;;;;;;;10.03;1.80;;;;;5.40;101974.00;;;;10098045;29;20303;-79
2023/01/26 18:13:39;;;;;;;5.90;1.57;;;;;5.40;101976.00;;;;10098375;29;20219;-79
2023/01/26 18:18:41;;;;;;;6.13;1.77;;;;;5.40;101980.00;;;;10114859;29;20666;-79
2023/01/26 18:23:48;;;;;;;7.73;1.30;;;;;5.40;101968.00;;;;10112690;29;20211;-79
2023/01/26 18:28:50;;;;;;;4.93;1.30;;;;;5.30;101965.00;;;;10078788;29;20227;-79
2023/01/26 18:33:53;;;;;;;7.67;1.43;;;;;5.30;101956.00;;;;10093989;29;20227;-79
2023/01/26 18:38:58;;;;;;;9.17;1.87;;;;;5.30;101962.00;;;;10109831;29;20210;-79
2023/01/26 18:44:02;;;;;;;7.33;1.97;;;;;5.30;101957.00;;;;10082067;29;20199;-78
2023/01/26 18:49:04;;;;;;;6.37;1.60;;;;;5.40;101972.00;;;;10089582;29;20624;-79
2023/01/26 18:54:08;;;;;;;9.53;2.23;;;;;5.40;101961.00;;;;10101436;29;20191;-79
2023/01/26 18:59:11;;;;;;;6.20;1.60;;;;;5.40;101964.00;;;;10095788;29;20212;-79
2023/01/26 19:04:13;;;;;;;6.40;1.80;;;;;5.40;101962.00;;;;10113663;29;20200;-78
2023/01/26 19:09:19;;;;;;;7.70;2.80;;;;;5.40;101956.00;;;;10098491;29;20691;-79
2023/01/26 19:14:21;;;;;;;8.63;2.00;;;;;5.40;101956.00;;;;10068742;29;20208;-79
2023/01/26 19:19:23;;;;;;;7.67;1.77;;;;;5.40;101955.00;;;;10107554;29;20570;-79
2023/01/26 19:24:25;;;;;;;6.90;1.53;;;;;5.40;101961.00;;;;10102930;29;20220;-79
2023/01/26 19:29:27;;;;;;;5.90;1.40;;;;;5.40;101960.00;;;;10079411;29;20219;-79
2023/01/26 19:34:31;;;;;;;6.63;1.27;;;;;5.40;101963.00;;;;10096657;29;20204;-79
2023/01/26 19:39:35;;;;;;;3.83;2.00;;;;;5.30;101959.00;;;;10127187;29;20200;-79
2023/01/26 19:44:36;;;;;;;5.93;2.13;;;;;5.30;101962.00;;;;10112479;29;20232;-79
2023/01/26 19:49:38;;;;;;;6.67;2.07;;;;;5.20;101973.00;;;;10066644;29;20317;-79
2023/01/26 19:54:40;;;;;;;10.37;2.03;;;;;5.20;101973.00;;;;10095966;29;20714;-79
2023/01/26 19:59:42;;;;;;;5.80;1.40;;;;;5.10;101983.00;;;;10108452;29;20203;-79
2023/01/26 20:04:44;;;;;;;6.40;2.63;;;;;5.10;101976.00;;;;10099402;29;20578;-79
2023/01/26 20:09:46;;;;;;;7.40;1.73;;;;;5.10;101979.00;;;;10111075;29;20223;-78
2023/01/26 20:14:52;;;;;;;7.60;1.83;;;;;5.10;101972.00;;;;10117188;29;20210;-79
2023/01/26 20:19:54;;;;;;;5.87;1.83;;;;;5.10;101970.00;;;;10093214;29;20211;-79
2023/01/26 20:24:57;;;;;;;6.80;1.90;;;;;5.10;101961.00;;;;10092432;29;20196;-78
2023/01/26 20:29:59;;;;;;;2.67;1.13;;;;;5.10;101960.00;;;;10080901;29;20223;-79
2023/01/26 20:35:01;;;;;;;7.73;2.00;;;;;5.10;101957.00;;;;10113074;29;20207;-79
2023/01/26 20:40:04;;;;;;;8.07;1.63;;;;;5.10;101958.00;;;;10100635;29;20234;-79
2023/01/26 20:45:07;;;;;;;9.70;6.53;;;;;5.10;101960.00;;;;10112965;29;20659;-79
2023/01/26 20:50:10;;;;;;;5.77;1.77;;;;;5.10;101950.00;;;;10086670;29;20285;-79
2023/01/26 20:55:13;;;;;;;8.40;1.50;;;;;5.00;101952.00;;;;10115336;29;20207;-79
2023/01/26 21:00:15;;;;;;;5.27;2.50;;;;;5.00;101948.00;;;;10100169;29;20200;-79
2023/01/26 21:05:18;;;;;;;6.17;1.93;;;;;5.00;101960.00;;;;10078397;29;20246;-79
2023/01/26 21:10:20;;;;;;;7.17;1.77;;;;;5.10;101960.00;;;;10113748;29;20211;-78
2023/01/26 21:15:22;;;;;;;8.57;1.60;;;;;5.10;101960.00;;;;10128411;29;20212;-80
2023/01/26 21:20:23;;;;;;;9.90;2.73;;;;;5.10;101955.00;;;;10091790;29;20745;-78
2023/01/26 21:25:26;;;;;;;8.60;2.50;;;;;5.10;101945.00;;;;10099331;29;20198;-79
2023/01/26 21:30:28;;;;;;;7.93;3.23;;;;;5.10;101935.00;;;;10123237;29;20751;-78
2023/01/26 21:35:30;;;;;;;5.43;1.83;;;;;5.10;101931.00;;;;10091565;29;20197;-78
2023/01/26 21:40:31;;;;;;;8.03;2.40;;;;;5.10;101931.00;;;;10080004;29;20686;-78
2023/01/26 21:45:51;;;;;;;9.83;3.77;;;;;5.10;101932.00;;;;10085006;29;20212;-78
2023/01/26 21:56:15;;;;;;;16.33;6.87;;;;;5.10;101921.00;;;;10100479;29;20215;-79
2023/01/26 22:01:17;;;;;;;9.90;3.90;;;;;5.00;101929.00;;;;10089115;29;20208;-78
2023/01/26 22:06:19;;;;;;;14.83;3.37;;;;;5.10;101931.00;;;;10106601;29;20223;-79
2023/01/26 22:11:21;;;;;;;12.37;4.17;;;;;5.10;101920.00;;;;10083055;29;20300;-79
2023/01/26 22:16:23;;;;;;;14.50;4.13;;;;;5.00;101908.00;;;;10077620;29;20785;-78
2023/01/26 22:21:25;;;;;;;11.87;3.90;;;;;5.00;101904.00;;;;10097978;29;20203;-79
2023/01/26 22:26:27;;;;;;;7.83;2.53;;;;;5.00;101911.00;;;;10058099;29;20792;-78
2023/01/26 22:31:30;;;;;;;6.90;1.73;;;;;5.00;101916.00;;;;10079247;29;20230;-79
2023/01/26 22:36:32;;;;;;;9.60;2.40;;;;;5.00;101910.00;;;;10082316;29;20264;-79
2023/01/26 22:41:36;;;;;;;8.90;1.53;;;;;5.00;101911.00;;;;10092495;29;20298;-78
2023/01/26 22:46:38;;;;;;;8.10;1.90;;;;;5.00;101914.00;;;;10109278;29;20204;-79
2023/01/26 22:51:40;;;;;;;16.23;1.60;;;;;5.10;101913.00;;;;10080373;29;20224;-79
2023/01/26 22:56:42;;;;;;;9.53;1.80;;;;;5.00;101911.00;;;;10111892;29;20200;-79
2023/01/26 23:01:44;;;;;;;10.57;1.43;;;;;5.00;101902.00;;;;10100877;29;20742;-78
2023/01/26 23:06:46;;;;;;;7.60;1.87;;;;;5.00;101906.00;;;;10094522;29;20252;-79
2023/01/26 23:11:48;;;;;;;6.93;2.40;;;;;5.00;101905.00;;;;10095719;29;20223;-78
2023/01/26 23:16:50;;;;;;;6.37;1.37;;;;;5.00;101895.00;;;;10111231;29;20298;-78
2023/01/26 23:21:52;;;;;;;15.37;2.00;;;;;5.10;101903.00;;;;10095821;29;20291;-78
2023/01/26 23:26:54;;;;;;;7.27;1.13;;;;;5.10;101894.00;;;;10077504;29;20207;-78
2023/01/26 23:31:56;;;;;;;4.27;1.40;;;;;5.10;101891.00;;;;10063108;29;20268;-78
2023/01/26 23:36:58;;;;;;;9.20;1.43;;;;;5.10;101900.00;;;;10076197;29;20211;-78
2023/01/26 23:42:00;;;;;;;7.50;1.30;;;;;5.10;101890.00;;;;10056303;29;20299;-78
2023/01/26 23:47:02;;;;;;;11.87;1.47;;;;;5.10;101892.00;;;;10098998;29;20234;-78
2023/01/26 23:52:03;;;;;;;7.70;1.77;;;;;5.10;101896.00;;;;10107030;29;20880;-79
2023/01/26 23:57:05;;;;;;;12.70;1.57;;;;;5.10;101898.00;;;;10095242;29;20208;-79
